sensor_id;sensor_type;location;lat;lon;timestamp;pressure;altitude;pressure_sealevel;temperature;humidity
71151;BME280;59071;42.138;24.768;2022-07-29T00:01:28;99707.25;;;25.31;49.26
71151;BME280;59071;42.138;24.768;2022-07-29T00:03:54;99702.56;;;25.04;49.94
71151;BME280;59071;42.138;24.768;2022-07-29T00:06:20;99692.66;;;24.94;50.20
71151;BME280;59071;42.138;24.768;2022-07-29T00:08:46;99700.34;;;25.06;50.13
71151;BME280;59071;42.138;24.768;2022-07-29T00:11:11;99696.78;;;24.77;50.78
71151;BME280;59071;42.138;24.768;2022-07-29T00:13:36;99709.06;;;24.75;51.18
71151;BME280;59071;42.138;24.768;2022-07-29T00:16:02;99713.72;;;24.88;50.85
71151;BME280;59071;42.138;24.768;2022-07-29T00:18:28;99714.13;;;24.82;51.12
71151;BME280;59071;42.138;24.768;2022-07-29T00:20:53;99704.25;;;24.86;51.33
71151;BME280;59071;42.138;24.768;2022-07-29T00:23:19;99704.47;;;24.89;51.03
71151;BME280;59071;42.138;24.768;2022-07-29T00:25:44;99689.19;;;24.74;51.20
71151;BME280;59071;42.138;24.768;2022-07-29T00:28:09;99709.66;;;24.72;51.74
71151;BME280;59071;42.138;24.768;2022-07-29T00:30:35;99703.22;;;24.68;51.65
71151;BME280;59071;42.138;24.768;2022-07-29T00:33:00;99709.31;;;24.59;51.93
71151;BME280;59071;42.138;24.768;2022-07-29T00:35:26;99702.19;;;24.45;52.55
71151;BME280;59071;42.138;24.768;2022-07-29T00:38:13;99704.31;;;24.48;52.46
71151;BME280;59071;42.138;24.768;2022-07-29T00:40:40;99701.22;;;24.73;51.87
71151;BME280;59071;42.138;24.768;2022-07-29T00:43:05;99696.84;;;24.58;52.32
71151;BME280;59071;42.138;24.768;2022-07-29T00:45:31;99698.38;;;24.78;51.78
71151;BME280;59071;42.138;24.768;2022-07-29T00:47:57;99708.03;;;25.04;51.37
71151;BME280;59071;42.138;24.768;2022-07-29T00:50:22;99701.88;;;24.98;51.35
71151;BME280;59071;42.138;24.768;2022-07-29T00:52:48;99703.25;;;24.95;51.83
71151;BME280;59071;42.138;24.768;2022-07-29T00:55:15;99705.28;;;25.04;51.54
71151;BME280;59071;42.138;24.768;2022-07-29T00:57:43;99710.69;;;24.90;52.19
71151;BME280;59071;42.138;24.768;2022-07-29T01:00:12;99707.09;;;24.94;51.89
71151;BME280;59071;42.138;24.768;2022-07-29T01:02:37;99709.59;;;24.91;52.27
71151;BME280;59071;42.138;24.768;2022-07-29T01:05:04;99702.13;;;24.83;52.30
71151;BME280;59071;42.138;24.768;2022-07-29T01:07:32;99711.97;;;24.78;52.56
71151;BME280;59071;42.138;24.768;2022-07-29T01:09:59;99706.00;;;24.63;53.04
71151;BME280;59071;42.138;24.768;2022-07-29T01:12:28;99698.13;;;24.61;53.16
71151;BME280;59071;42.138;24.768;2022-07-29T01:14:54;99701.47;;;24.39;53.75
71151;BME280;59071;42.138;24.768;2022-07-29T01:30:29;99711.53;;;25.18;51.94
71151;BME280;59071;42.138;24.768;2022-07-29T01:32:59;99701.38;;;25.10;52.37
71151;BME280;59071;42.138;24.768;2022-07-29T01:35:29;99711.63;;;25.13;52.11
71151;BME280;59071;42.138;24.768;2022-07-29T01:38:13;99710.56;;;25.28;51.95
71151;BME280;59071;42.138;24.768;2022-07-29T01:40:49;99706.69;;;25.15;51.96
71151;BME280;59071;42.138;24.768;2022-07-29T01:43:19;99701.06;;;25.11;52.04
71151;BME280;59071;42.138;24.768;2022-07-29T01:45:48;99703.31;;;25.23;51.58
71151;BME280;59071;42.138;24.768;2022-07-29T01:48:29;99701.16;;;25.20;51.93
71151;BME280;59071;42.138;24.768;2022-07-29T01:51:02;99699.44;;;25.10;51.75
71151;BME280;59071;42.138;24.768;2022-07-29T01:53:35;99696.09;;;25.00;51.94
71151;BME280;59071;42.138;24.768;2022-07-29T01:56:03;99695.28;;;24.85;51.78
71151;BME280;59071;42.138;24.768;2022-07-29T01:58:31;99697.91;;;24.57;53.01
71151;BME280;59071;42.138;24.768;2022-07-29T02:00:58;99698.94;;;24.62;53.02
71151;BME280;59071;42.138;24.768;2022-07-29T02:03:25;99695.72;;;24.59;53.08
71151;BME280;59071;42.138;24.768;2022-07-29T02:05:52;99691.50;;;24.67;53.23
71151;BME280;59071;42.138;24.768;2022-07-29T02:08:19;99698.38;;;24.78;52.99
71151;BME280;59071;42.138;24.768;2022-07-29T02:10:47;99694.84;;;24.64;53.32
71151;BME280;59071;42.138;24.768;2022-07-29T02:13:13;99684.16;;;24.68;53.12
71151;BME280;59071;42.138;24.768;2022-07-29T02:15:42;99691.50;;;24.67;53.35
71151;BME280;59071;42.138;24.768;2022-07-29T02:18:11;99694.44;;;24.71;53.28
71151;BME280;59071;42.138;24.768;2022-07-29T02:20:39;99698.78;;;24.72;53.50
71151;BME280;59071;42.138;24.768;2022-07-29T02:23:09;99687.84;;;24.91;52.87
71151;BME280;59071;42.138;24.768;2022-07-29T02:25:35;99697.09;;;24.90;53.00
71151;BME280;59071;42.138;24.768;2022-07-29T02:28:02;99680.34;;;24.83;53.07
71151;BME280;59071;42.138;24.768;2022-07-29T02:30:30;99690.84;;;24.75;53.36
71151;BME280;59071;42.138;24.768;2022-07-29T02:32:56;99681.47;;;24.82;53.28
71151;BME280;59071;42.138;24.768;2022-07-29T02:35:23;99685.25;;;24.67;53.46
71151;BME280;59071;42.138;24.768;2022-07-29T02:37:50;99683.84;;;24.69;53.53
71151;BME280;59071;42.138;24.768;2022-07-29T02:40:38;99683.47;;;24.76;53.29
71151;BME280;59071;42.138;24.768;2022-07-29T02:43:05;99685.56;;;24.65;53.62
71151;BME280;59071;42.138;24.768;2022-07-29T02:45:32;99688.47;;;24.55;53.87
71151;BME280;59071;42.138;24.768;2022-07-29T02:48:00;99687.19;;;24.66;53.45
71151;BME280;59071;42.138;24.768;2022-07-29T02:50:33;99681.47;;;24.49;53.71
71151;BME280;59071;42.138;24.768;2022-07-29T02:53:07;99683.16;;;24.64;53.00
71151;BME280;59071;42.138;24.768;2022-07-29T02:55:37;99689.88;;;24.52;53.27
71151;BME280;59071;42.138;24.768;2022-07-29T02:58:15;99684.47;;;24.47;53.42
71151;BME280;59071;42.138;24.768;2022-07-29T03:00:44;99689.63;;;24.49;53.49
71151;BME280;59071;42.138;24.768;2022-07-29T03:03:12;99683.31;;;24.53;53.34
71151;BME280;59071;42.138;24.768;2022-07-29T03:05:39;99689.63;;;24.49;53.41
71151;BME280;59071;42.138;24.768;2022-07-29T03:08:07;99681.31;;;24.40;53.50
71151;BME280;59071;42.138;24.768;2022-07-29T03:10:34;99697.34;;;24.42;53.93
71151;BME280;59071;42.138;24.768;2022-07-29T03:13:00;99688.50;;;24.50;53.68
71151;BME280;59071;42.138;24.768;2022-07-29T03:15:26;99688.78;;;24.48;53.96
71151;BME280;59071;42.138;24.768;2022-07-29T03:17:52;99689.91;;;24.47;53.65
71151;BME280;59071;42.138;24.768;2022-07-29T03:20:19;99697.41;;;24.55;53.56
71151;BME280;59071;42.138;24.768;2022-07-29T03:22:45;99692.41;;;24.44;53.87
71151;BME280;59071;42.138;24.768;2022-07-29T03:25:15;99698.28;;;24.51;53.60
71151;BME280;59071;42.138;24.768;2022-07-29T03:27:41;99703.97;;;24.54;53.86
71151;BME280;59071;42.138;24.768;2022-07-29T03:30:08;99701.66;;;24.62;53.72
71151;BME280;59071;42.138;24.768;2022-07-29T03:32:33;99717.69;;;24.63;53.71
71151;BME280;59071;42.138;24.768;2022-07-29T03:34:59;99718.34;;;24.74;53.26
71151;BME280;59071;42.138;24.768;2022-07-29T03:37:25;99703.78;;;24.65;53.60
71151;BME280;59071;42.138;24.768;2022-07-29T03:39:52;99707.44;;;24.74;53.34
71151;BME280;59071;42.138;24.768;2022-07-29T03:42:21;99712.25;;;24.63;53.73
71151;BME280;59071;42.138;24.768;2022-07-29T03:44:50;99712.19;;;24.49;53.94
71151;BME280;59071;42.138;24.768;2022-07-29T03:47:17;99713.59;;;24.80;53.30
71151;BME280;59071;42.138;24.768;2022-07-29T03:49:46;99705.66;;;24.83;53.14
71151;BME280;59071;42.138;24.768;2022-07-29T03:52:13;99718.75;;;24.81;53.09
71151;BME280;59071;42.138;24.768;2022-07-29T03:54:39;99719.09;;;25.07;52.66
71151;BME280;59071;42.138;24.768;2022-07-29T03:57:05;99715.50;;;25.26;52.01
71151;BME280;59071;42.138;24.768;2022-07-29T03:59:32;99717.75;;;25.51;51.44
71151;BME280;59071;42.138;24.768;2022-07-29T04:02:00;99719.63;;;25.79;50.67
71151;BME280;59071;42.138;24.768;2022-07-29T04:04:26;99720.97;;;26.18;49.43
71151;BME280;59071;42.138;24.768;2022-07-29T04:06:51;99724.81;;;26.84;47.33
71151;BME280;59071;42.138;24.768;2022-07-29T04:09:17;99721.28;;;26.39;48.55
71151;BME280;59071;42.138;24.768;2022-07-29T04:11:42;99723.69;;;26.40;48.94
71151;BME280;59071;42.138;24.768;2022-07-29T04:14:08;99716.34;;;26.41;48.73
71151;BME280;59071;42.138;24.768;2022-07-29T04:16:33;99732.72;;;26.63;48.25
71151;BME280;59071;42.138;24.768;2022-07-29T04:18:59;99724.59;;;27.03;46.81
71151;BME280;59071;42.138;24.768;2022-07-29T04:21:24;99730.38;;;27.33;46.36
71151;BME280;59071;42.138;24.768;2022-07-29T04:23:50;99726.59;;;27.60;45.48
71151;BME280;59071;42.138;24.768;2022-07-29T04:26:19;99729.03;;;27.62;45.44
71151;BME280;59071;42.138;24.768;2022-07-29T04:28:45;99730.47;;;27.68;45.62
71151;BME280;59071;42.138;24.768;2022-07-29T04:31:11;99715.72;;;27.78;45.36
71151;BME280;59071;42.138;24.768;2022-07-29T04:33:37;99729.59;;;28.25;44.54
71151;BME280;59071;42.138;24.768;2022-07-29T04:36:03;99729.78;;;28.28;44.48
71151;BME280;59071;42.138;24.768;2022-07-29T04:38:28;99734.66;;;29.14;42.84
71151;BME280;59071;42.138;24.768;2022-07-29T04:40:53;99732.47;;;28.81;42.86
71151;BME280;59071;42.138;24.768;2022-07-29T04:43:19;99733.28;;;28.73;43.06
71151;BME280;59071;42.138;24.768;2022-07-29T04:45:44;99736.50;;;28.75;42.92
71151;BME280;59071;42.138;24.768;2022-07-29T04:48:10;99742.88;;;29.05;42.47
71151;BME280;59071;42.138;24.768;2022-07-29T04:50:38;99754.84;;;29.39;41.63
71151;BME280;59071;42.138;24.768;2022-07-29T04:53:04;99748.53;;;30.07;40.52
71151;BME280;59071;42.138;24.768;2022-07-29T04:55:30;99746.84;;;29.93;40.01
71151;BME280;59071;42.138;24.768;2022-07-29T04:57:55;99755.44;;;29.53;40.50
71151;BME280;59071;42.138;24.768;2022-07-29T05:00:20;99750.16;;;29.48;39.93
71151;BME280;59071;42.138;24.768;2022-07-29T05:02:46;99743.75;;;29.95;38.89
71151;BME280;59071;42.138;24.768;2022-07-29T05:05:11;99746.31;;;30.00;38.98
71151;BME280;59071;42.138;24.768;2022-07-29T05:07:36;99749.91;;;30.43;38.12
71151;BME280;59071;42.138;24.768;2022-07-29T05:10:03;99762.78;;;30.96;36.91
71151;BME280;59071;42.138;24.768;2022-07-29T05:12:28;99748.53;;;30.49;37.72
71151;BME280;59071;42.138;24.768;2022-07-29T05:14:54;99750.22;;;30.41;37.51
71151;BME280;59071;42.138;24.768;2022-07-29T05:17:20;99757.44;;;30.46;37.43
71151;BME280;59071;42.138;24.768;2022-07-29T05:19:45;99760.91;;;30.55;37.34
71151;BME280;59071;42.138;24.768;2022-07-29T05:22:11;99760.28;;;31.04;37.12
71151;BME280;59071;42.138;24.768;2022-07-29T05:24:36;99761.34;;;31.36;36.35
71151;BME280;59071;42.138;24.768;2022-07-29T05:27:02;99762.78;;;31.09;37.08
71151;BME280;59071;42.138;24.768;2022-07-29T05:29:27;99758.50;;;30.87;37.36
71151;BME280;59071;42.138;24.768;2022-07-29T05:31:53;99767.16;;;31.10;37.46
71151;BME280;59071;42.138;24.768;2022-07-29T05:34:19;99762.38;;;31.44;36.62
71151;BME280;59071;42.138;24.768;2022-07-29T05:36:45;99765.94;;;31.93;35.63
71151;BME280;59071;42.138;24.768;2022-07-29T05:39:11;99756.91;;;31.68;36.39
71151;BME280;59071;42.138;24.768;2022-07-29T05:41:38;99762.75;;;31.54;36.08
71151;BME280;59071;42.138;24.768;2022-07-29T05:44:03;99767.47;;;31.66;36.33
71151;BME280;59071;42.138;24.768;2022-07-29T05:46:29;99768.00;;;31.84;35.26
71151;BME280;59071;42.138;24.768;2022-07-29T05:48:54;99770.91;;;32.28;34.79
71151;BME280;59071;42.138;24.768;2022-07-29T05:51:19;99774.44;;;32.41;34.37
71151;BME280;59071;42.138;24.768;2022-07-29T05:53:45;99773.09;;;32.35;34.24
71151;BME280;59071;42.138;24.768;2022-07-29T05:56:10;99781.09;;;32.68;33.72
71151;BME280;59071;42.138;24.768;2022-07-29T05:58:36;99786.78;;;32.47;34.69
71151;BME280;59071;42.138;24.768;2022-07-29T06:01:01;99783.28;;;32.75;34.48
71151;BME280;59071;42.138;24.768;2022-07-29T06:03:27;99787.88;;;33.79;32.74
71151;BME280;59071;42.138;24.768;2022-07-29T06:05:53;99777.94;;;33.42;32.82
71151;BME280;59071;42.138;24.768;2022-07-29T06:08:19;99777.66;;;33.16;33.84
71151;BME280;59071;42.138;24.768;2022-07-29T06:10:45;99774.97;;;33.35;32.89
71151;BME280;59071;42.138;24.768;2022-07-29T06:13:11;99788.19;;;34.28;31.82
71151;BME280;59071;42.138;24.768;2022-07-29T06:15:37;99782.16;;;33.87;32.59
71151;BME280;59071;42.138;24.768;2022-07-29T06:18:03;99784.69;;;33.61;32.88
71151;BME280;59071;42.138;24.768;2022-07-29T06:20:29;99777.66;;;33.47;33.11
71151;BME280;59071;42.138;24.768;2022-07-29T06:22:56;99778.28;;;33.57;33.02
71151;BME280;59071;42.138;24.768;2022-07-29T06:25:21;99783.69;;;34.59;31.55
71151;BME280;59071;42.138;24.768;2022-07-29T06:27:47;99780.06;;;34.36;32.14
71151;BME280;59071;42.138;24.768;2022-07-29T06:30:12;99787.47;;;34.32;31.71
71151;BME280;59071;42.138;24.768;2022-07-29T06:32:38;99785.00;;;34.46;32.01
71151;BME280;59071;42.138;24.768;2022-07-29T06:35:04;99782.19;;;34.07;31.78
71151;BME280;59071;42.138;24.768;2022-07-29T06:37:29;99777.03;;;35.26;30.24
71151;BME280;59071;42.138;24.768;2022-07-29T06:39:55;99788.81;;;35.00;31.52
71151;BME280;59071;42.138;24.768;2022-07-29T06:42:42;99777.00;;;34.60;31.38
71151;BME280;59071;42.138;24.768;2022-07-29T06:45:09;99774.09;;;34.34;31.44
71151;BME280;59071;42.138;24.768;2022-07-29T06:47:34;99777.44;;;34.62;31.52
71151;BME280;59071;42.138;24.768;2022-07-29T06:50:00;99774.97;;;35.19;30.16
71151;BME280;59071;42.138;24.768;2022-07-29T06:52:25;99767.84;;;34.76;30.79
71151;BME280;59071;42.138;24.768;2022-07-29T06:54:51;99778.66;;;34.65;31.07
71151;BME280;59071;42.138;24.768;2022-07-29T06:57:16;99775.41;;;34.40;31.48
71151;BME280;59071;42.138;24.768;2022-07-29T06:59:41;99759.88;;;35.17;29.99
71151;BME280;59071;42.138;24.768;2022-07-29T07:02:07;99773.16;;;34.45;30.98
71151;BME280;59071;42.138;24.768;2022-07-29T07:04:32;99767.28;;;34.47;31.40
71151;BME280;59071;42.138;24.768;2022-07-29T07:06:58;99766.03;;;34.25;31.47
71151;BME280;59071;42.138;24.768;2022-07-29T07:09:24;99764.44;;;34.08;31.78
71151;BME280;59071;42.138;24.768;2022-07-29T07:11:50;99768.38;;;34.07;31.21
71151;BME280;59071;42.138;24.768;2022-07-29T07:14:16;99755.28;;;35.01;30.34
71151;BME280;59071;42.138;24.768;2022-07-29T07:16:41;99765.16;;;35.02;30.46
71151;BME280;59071;42.138;24.768;2022-07-29T07:19:07;99762.19;;;34.30;31.08
71151;BME280;59071;42.138;24.768;2022-07-29T07:21:32;99766.50;;;34.11;31.06
71151;BME280;59071;42.138;24.768;2022-07-29T07:23:59;99757.34;;;34.85;30.52
71151;BME280;59071;42.138;24.768;2022-07-29T07:26:25;99757.69;;;36.06;28.56
71151;BME280;59071;42.138;24.768;2022-07-29T07:28:51;99745.72;;;35.45;29.08
71151;BME280;59071;42.138;24.768;2022-07-29T07:31:16;99762.13;;;35.57;29.80
71151;BME280;59071;42.138;24.768;2022-07-29T07:33:42;99765.72;;;35.85;29.13
71151;BME280;59071;42.138;24.768;2022-07-29T07:36:07;99757.25;;;36.04;29.09
71151;BME280;59071;42.138;24.768;2022-07-29T07:38:33;99763.81;;;35.66;29.01
71151;BME280;59071;42.138;24.768;2022-07-29T07:41:00;99755.78;;;36.10;28.01
71151;BME280;59071;42.138;24.768;2022-07-29T07:43:25;99762.88;;;35.08;29.52
71151;BME280;59071;42.138;24.768;2022-07-29T07:45:51;99763.44;;;34.94;29.74
71151;BME280;59071;42.138;24.768;2022-07-29T07:48:16;99752.75;;;34.50;30.19
71151;BME280;59071;42.138;24.768;2022-07-29T07:50:42;99748.66;;;35.29;28.35
71151;BME280;59071;42.138;24.768;2022-07-29T07:53:08;99744.25;;;36.35;27.27
71151;BME280;59071;42.138;24.768;2022-07-29T07:55:39;99746.94;;;35.71;26.57
71151;BME280;59071;42.138;24.768;2022-07-29T07:58:05;99752.56;;;35.51;26.71
71151;BME280;59071;42.138;24.768;2022-07-29T08:00:30;99744.13;;;35.17;28.20
71151;BME280;59071;42.138;24.768;2022-07-29T08:02:57;99744.59;;;35.00;28.38
71151;BME280;59071;42.138;24.768;2022-07-29T08:05:22;99742.22;;;35.48;26.33
71151;BME280;59071;42.138;24.768;2022-07-29T08:07:48;99742.81;;;35.34;26.72
71151;BME280;59071;42.138;24.768;2022-07-29T08:10:18;99740.72;;;35.28;27.42
71151;BME280;59071;42.138;24.768;2022-07-29T08:13:11;99740.34;;;35.06;27.23
71151;BME280;59071;42.138;24.768;2022-07-29T08:15:38;99749.63;;;34.71;27.26
71151;BME280;59071;42.138;24.768;2022-07-29T08:18:04;99734.97;;;34.94;26.45
71151;BME280;59071;42.138;24.768;2022-07-29T08:20:30;99744.69;;;34.84;25.28
71151;BME280;59071;42.138;24.768;2022-07-29T08:22:57;99743.13;;;34.63;25.96
71151;BME280;59071;42.138;24.768;2022-07-29T08:25:22;99743.44;;;34.39;27.06
71151;BME280;59071;42.138;24.768;2022-07-29T08:27:48;99740.28;;;34.79;26.76
71151;BME280;59071;42.138;24.768;2022-07-29T08:30:13;99737.94;;;35.28;25.92
71151;BME280;59071;42.138;24.768;2022-07-29T08:32:39;99739.84;;;35.00;26.33
71151;BME280;59071;42.138;24.768;2022-07-29T08:35:04;99744.13;;;34.75;26.68
71151;BME280;59071;42.138;24.768;2022-07-29T08:37:30;99732.31;;;34.35;27.07
71151;BME280;59071;42.138;24.768;2022-07-29T08:39:56;99719.50;;;34.07;27.62
71151;BME280;59071;42.138;24.768;2022-07-29T08:42:21;99730.19;;;34.68;27.17
71151;BME280;59071;42.138;24.768;2022-07-29T08:44:47;99718.41;;;35.40;26.29
71151;BME280;59071;42.138;24.768;2022-07-29T08:47:14;99720.25;;;35.86;25.52
71151;BME280;59071;42.138;24.768;2022-07-29T08:49:39;99721.63;;;35.19;25.61
71151;BME280;59071;42.138;24.768;2022-07-29T08:52:05;99724.50;;;35.26;24.79
71151;BME280;59071;42.138;24.768;2022-07-29T08:54:31;99703.06;;;34.73;24.54
71151;BME280;59071;42.138;24.768;2022-07-29T08:56:58;99712.56;;;34.99;24.70
71151;BME280;59071;42.138;24.768;2022-07-29T08:59:25;99700.91;;;35.32;24.95
71151;BME280;59071;42.138;24.768;2022-07-29T09:01:53;99705.00;;;35.69;24.75
71151;BME280;59071;42.138;24.768;2022-07-29T09:04:19;99702.28;;;35.72;24.46
71151;BME280;59071;42.138;24.768;2022-07-29T09:06:47;99698.34;;;35.73;23.75
71151;BME280;59071;42.138;24.768;2022-07-29T09:09:14;99698.59;;;35.91;23.92
71151;BME280;59071;42.138;24.768;2022-07-29T09:11:40;99693.16;;;36.32;24.30
71151;BME280;59071;42.138;24.768;2022-07-29T09:14:06;99697.16;;;36.35;22.65
71151;BME280;59071;42.138;24.768;2022-07-29T09:16:54;99704.63;;;35.70;24.68
71151;BME280;59071;42.138;24.768;2022-07-29T09:19:28;99697.03;;;35.94;24.84
71151;BME280;59071;42.138;24.768;2022-07-29T09:21:54;99691.75;;;36.15;23.73
71151;BME280;59071;42.138;24.768;2022-07-29T09:24:36;99686.59;;;35.53;23.68
71151;BME280;59071;42.138;24.768;2022-07-29T09:29:36;99687.28;;;35.73;23.24
71151;BME280;59071;42.138;24.768;2022-07-29T09:32:06;99685.94;;;35.37;23.52
71151;BME280;59071;42.138;24.768;2022-07-29T09:34:33;99678.13;;;34.93;23.54
71151;BME280;59071;42.138;24.768;2022-07-29T09:36:59;99677.06;;;35.01;23.77
71151;BME280;59071;42.138;24.768;2022-07-29T09:39:34;99672.28;;;34.75;24.54
71151;BME280;59071;42.138;24.768;2022-07-29T09:42:05;99669.94;;;35.23;24.46
71151;BME280;59071;42.138;24.768;2022-07-29T09:44:48;99673.69;;;35.65;23.77
71151;BME280;59071;42.138;24.768;2022-07-29T09:47:16;99673.84;;;35.75;24.31
71151;BME280;59071;42.138;24.768;2022-07-29T09:49:58;99670.94;;;35.65;23.79
71151;BME280;59071;42.138;24.768;2022-07-29T09:52:28;99666.84;;;35.05;23.57
71151;BME280;59071;42.138;24.768;2022-07-29T09:55:09;99668.41;;;34.56;23.24
71151;BME280;59071;42.138;24.768;2022-07-29T09:57:35;99664.84;;;34.56;23.33
71151;BME280;59071;42.138;24.768;2022-07-29T10:02:34;99666.06;;;34.35;23.12
71151;BME280;59071;42.138;24.768;2022-07-29T10:05:01;99661.22;;;34.75;23.17
71151;BME280;59071;42.138;24.768;2022-07-29T10:07:44;99649.75;;;34.96;23.11
71151;BME280;59071;42.138;24.768;2022-07-29T10:10:10;99653.41;;;34.77;23.46
71151;BME280;59071;42.138;24.768;2022-07-29T10:12:49;99654.03;;;34.93;22.52
71151;BME280;59071;42.138;24.768;2022-07-29T10:15:15;99656.63;;;35.05;22.67
71151;BME280;59071;42.138;24.768;2022-07-29T10:17:41;99659.66;;;34.74;23.60
71151;BME280;59071;42.138;24.768;2022-07-29T10:20:08;99646.84;;;34.65;23.47
71151;BME280;59071;42.138;24.768;2022-07-29T10:22:33;99650.31;;;34.82;24.00
71151;BME280;59071;42.138;24.768;2022-07-29T10:24:59;99650.28;;;35.28;23.00
71151;BME280;59071;42.138;24.768;2022-07-29T10:27:25;99640.91;;;35.36;22.77
71151;BME280;59071;42.138;24.768;2022-07-29T10:29:50;99642.44;;;35.60;22.61
71151;BME280;59071;42.138;24.768;2022-07-29T10:32:35;99639.38;;;35.69;23.57
71151;BME280;59071;42.138;24.768;2022-07-29T10:43:51;99620.75;;;35.09;24.14
71151;BME280;59071;42.138;24.768;2022-07-29T10:46:17;99626.31;;;35.39;24.00
71151;BME280;59071;42.138;24.768;2022-07-29T10:49:09;99620.72;;;35.66;23.22
71151;BME280;59071;42.138;24.768;2022-07-29T10:51:54;99605.34;;;36.36;23.01
71151;BME280;59071;42.138;24.768;2022-07-29T10:57:26;99597.88;;;36.40;22.89
71151;BME280;59071;42.138;24.768;2022-07-29T11:07:24;99596.31;;;36.43;23.10
71151;BME280;59071;42.138;24.768;2022-07-29T11:15:06;99585.94;;;36.33;23.61
71151;BME280;59071;42.138;24.768;2022-07-29T11:20:43;99580.66;;;36.65;24.20
71151;BME280;59071;42.138;24.768;2022-07-29T11:23:29;99578.94;;;36.46;24.04
71151;BME280;59071;42.138;24.768;2022-07-29T11:29:01;99573.69;;;36.82;24.12
71151;BME280;59071;42.138;24.768;2022-07-29T11:31:42;99574.59;;;37.01;24.13
71151;BME280;59071;42.138;24.768;2022-07-29T11:39:34;99564.22;;;36.42;23.99
71151;BME280;59071;42.138;24.768;2022-07-29T11:44:56;99556.47;;;36.58;23.45
71151;BME280;59071;42.138;24.768;2022-07-29T11:47:23;99549.31;;;36.57;23.63
71151;BME280;59071;42.138;24.768;2022-07-29T11:49:50;99555.75;;;36.20;23.92
71151;BME280;59071;42.138;24.768;2022-07-29T11:52:20;99560.81;;;35.77;24.31
71151;BME280;59071;42.138;24.768;2022-07-29T11:54:48;99542.81;;;35.60;24.90
71151;BME280;59071;42.138;24.768;2022-07-29T11:57:18;99542.53;;;36.07;23.66
71151;BME280;59071;42.138;24.768;2022-07-29T11:59:45;99540.38;;;35.55;24.29
71151;BME280;59071;42.138;24.768;2022-07-29T12:02:12;99535.09;;;36.14;24.07
71151;BME280;59071;42.138;24.768;2022-07-29T12:04:55;99539.78;;;36.51;23.00
71151;BME280;59071;42.138;24.768;2022-07-29T12:07:28;99523.19;;;36.10;23.92
71151;BME280;59071;42.138;24.768;2022-07-29T12:09:54;99542.38;;;35.92;24.31
71151;BME280;59071;42.138;24.768;2022-07-29T12:12:20;99529.47;;;35.05;25.32
71151;BME280;59071;42.138;24.768;2022-07-29T12:14:46;99531.78;;;35.30;24.38
71151;BME280;59071;42.138;24.768;2022-07-29T12:17:44;99527.47;;;36.04;23.76
71151;BME280;59071;42.138;24.768;2022-07-29T12:20:10;99523.09;;;36.44;23.57
71151;BME280;59071;42.138;24.768;2022-07-29T12:22:38;99522.03;;;36.63;22.90
71151;BME280;59071;42.138;24.768;2022-07-29T12:25:14;99522.84;;;36.64;23.23
71151;BME280;59071;42.138;24.768;2022-07-29T12:27:42;99527.03;;;36.95;22.26
71151;BME280;59071;42.138;24.768;2022-07-29T12:30:16;99527.63;;;37.33;21.96
71151;BME280;59071;42.138;24.768;2022-07-29T12:32:46;99518.84;;;37.16;22.39
71151;BME280;59071;42.138;24.768;2022-07-29T12:35:17;99509.00;;;37.26;22.39
71151;BME280;59071;42.138;24.768;2022-07-29T12:37:45;99506.31;;;37.51;22.30
71151;BME280;59071;42.138;24.768;2022-07-29T12:40:12;99505.88;;;37.42;22.43
71151;BME280;59071;42.138;24.768;2022-07-29T12:42:39;99511.22;;;37.03;22.96
71151;BME280;59071;42.138;24.768;2022-07-29T12:45:05;99501.97;;;36.25;23.23
71151;BME280;59071;42.138;24.768;2022-07-29T12:47:31;99503.28;;;36.42;22.69
71151;BME280;59071;42.138;24.768;2022-07-29T12:50:13;99489.00;;;36.33;23.27
71151;BME280;59071;42.138;24.768;2022-07-29T12:52:40;99481.59;;;36.51;23.23
71151;BME280;59071;42.138;24.768;2022-07-29T12:55:06;99498.06;;;36.30;23.41
71151;BME280;59071;42.138;24.768;2022-07-29T12:57:32;99488.88;;;36.18;23.51
71151;BME280;59071;42.138;24.768;2022-07-29T13:02:33;99477.84;;;35.85;24.30
71151;BME280;59071;42.138;24.768;2022-07-29T13:05:00;99481.47;;;35.51;24.64
71151;BME280;59071;42.138;24.768;2022-07-29T13:07:27;99475.53;;;35.90;23.77
71151;BME280;59071;42.138;24.768;2022-07-29T13:09:53;99467.19;;;36.28;23.62
71151;BME280;59071;42.138;24.768;2022-07-29T13:12:19;99486.03;;;36.59;24.03
71151;BME280;59071;42.138;24.768;2022-07-29T13:14:49;99458.94;;;36.35;23.89
71151;BME280;59071;42.138;24.768;2022-07-29T13:17:20;99487.94;;;36.55;23.28
71151;BME280;59071;42.138;24.768;2022-07-29T13:19:48;99474.06;;;36.48;23.45
71151;BME280;59071;42.138;24.768;2022-07-29T13:22:16;99464.50;;;36.42;23.65
71151;BME280;59071;42.138;24.768;2022-07-29T13:27:13;99459.38;;;36.40;23.53
71151;BME280;59071;42.138;24.768;2022-07-29T13:29:39;99451.81;;;36.34;23.86
71151;BME280;59071;42.138;24.768;2022-07-29T13:32:05;99440.19;;;36.69;23.85
71151;BME280;59071;42.138;24.768;2022-07-29T13:34:30;99455.66;;;36.18;23.77
71151;BME280;59071;42.138;24.768;2022-07-29T13:36:56;99443.84;;;36.29;23.93
71151;BME280;59071;42.138;24.768;2022-07-29T13:39:22;99459.84;;;36.53;23.28
71151;BME280;59071;42.138;24.768;2022-07-29T13:41:47;99445.63;;;36.58;23.48
71151;BME280;59071;42.138;24.768;2022-07-29T13:44:12;99438.97;;;36.67;23.34
71151;BME280;59071;42.138;24.768;2022-07-29T13:46:38;99444.75;;;36.47;23.35
71151;BME280;59071;42.138;24.768;2022-07-29T13:49:03;99440.00;;;36.48;23.44
71151;BME280;59071;42.138;24.768;2022-07-29T13:51:29;99429.22;;;36.32;23.39
71151;BME280;59071;42.138;24.768;2022-07-29T13:53:54;99428.47;;;36.38;23.65
71151;BME280;59071;42.138;24.768;2022-07-29T13:56:19;99425.88;;;36.08;24.34